sensor_id;sensor_type;location;lat;lon;timestamp;temperature;humidity
9151;DHT22;4610;50.006;7.490;2023-02-16T00:01:17;-0.70;99.90
9151;DHT22;4610;50.006;7.490;2023-02-16T00:03:44;-0.90;99.90
9151;DHT22;4610;50.006;7.490;2023-02-16T00:06:11;-1.00;99.90
9151;DHT22;4610;50.006;7.490;2023-02-16T00:08:41;-1.00;99.90
9151;DHT22;4610;50.006;7.490;2023-02-16T00:11:17;-1.10;99.90
9151;DHT22;4610;50.006;7.490;2023-02-16T00:14:06;-1.10;99.90
9151;DHT22;4610;50.006;7.490;2023-02-16T00:16:34;-1.10;99.90
9151;DHT22;4610;50.006;7.490;2023-02-16T00:19:04;-1.10;99.90
9151;DHT22;4610;50.006;7.490;2023-02-16T00:21:36;-1.00;99.90
9151;DHT22;4610;50.006;7.490;2023-02-16T00:24:04;-1.10;99.90
9151;DHT22;4610;50.006;7.490;2023-02-16T00:26:33;-1.10;99.90
9151;DHT22;4610;50.006;7.490;2023-02-16T00:29:00;-1.10;99.90
9151;DHT22;4610;50.006;7.490;2023-02-16T00:31:28;-1.20;99.90
9151;DHT22;4610;50.006;7.490;2023-02-16T00:33:57;-1.20;99.90
9151;DHT22;4610;50.006;7.490;2023-02-16T00:36:24;-1.30;99.90
9151;DHT22;4610;50.006;7.490;2023-02-16T00:38:51;-1.40;99.90
9151;DHT22;4610;50.006;7.490;2023-02-16T00:41:19;-1.40;99.90
9151;DHT22;4610;50.006;7.490;2023-02-16T00:44:05;-1.40;99.90
9151;DHT22;4610;50.006;7.490;2023-02-16T00:46:33;-1.40;99.90
9151;DHT22;4610;50.006;7.490;2023-02-16T00:49:00;-1.50;99.90
9151;DHT22;4610;50.006;7.490;2023-02-16T00:51:27;-1.50;99.90
9151;DHT22;4610;50.006;7.490;2023-02-16T00:53:54;-1.50;99.90
9151;DHT22;4610;50.006;7.490;2023-02-16T00:56:21;-1.50;99.90
9151;DHT22;4610;50.006;7.490;2023-02-16T00:58:50;-1.50;99.90
9151;DHT22;4610;50.006;7.490;2023-02-16T01:01:21;-1.50;99.90
9151;DHT22;4610;50.006;7.490;2023-02-16T01:03:51;-1.50;99.90
9151;DHT22;4610;50.006;7.490;2023-02-16T01:06:18;-1.50;99.90
9151;DHT22;4610;50.006;7.490;2023-02-16T01:09:10;-1.50;99.90
9151;DHT22;4610;50.006;7.490;2023-02-16T01:11:55;-1.50;99.90
9151;DHT22;4610;50.006;7.490;2023-02-16T01:14:22;-1.50;99.90
9151;DHT22;4610;50.006;7.490;2023-02-16T01:16:50;-1.50;99.90
9151;DHT22;4610;50.006;7.490;2023-02-16T01:19:19;-1.50;99.90
9151;DHT22;4610;50.006;7.490;2023-02-16T01:21:46;-1.50;99.90
9151;DHT22;4610;50.006;7.490;2023-02-16T01:24:13;-1.50;99.90
9151;DHT22;4610;50.006;7.490;2023-02-16T01:26:43;-1.50;99.90
9151;DHT22;4610;50.006;7.490;2023-02-16T01:29:13;-1.50;99.90
9151;DHT22;4610;50.006;7.490;2023-02-16T01:31:41;-1.40;99.90
9151;DHT22;4610;50.006;7.490;2023-02-16T01:34:08;-1.50;99.90
9151;DHT22;4610;50.006;7.490;2023-02-16T01:36:41;-1.50;99.90
9151;DHT22;4610;50.006;7.490;2023-02-16T01:39:11;-1.50;99.90
9151;DHT22;4610;50.006;7.490;2023-02-16T01:41:58;-1.50;99.90
9151;DHT22;4610;50.006;7.490;2023-02-16T01:44:31;-1.50;99.90
9151;DHT22;4610;50.006;7.490;2023-02-16T01:47:03;-1.40;99.90
9151;DHT22;4610;50.006;7.490;2023-02-16T01:49:31;-1.50;99.90
9151;DHT22;4610;50.006;7.490;2023-02-16T01:52:04;-1.40;99.90
9151;DHT22;4610;50.006;7.490;2023-02-16T01:54:36;-1.40;99.90
9151;DHT22;4610;50.006;7.490;2023-02-16T01:57:08;-1.50;99.90
9151;DHT22;4610;50.006;7.490;2023-02-16T01:59:40;-1.60;99.90
9151;DHT22;4610;50.006;7.490;2023-02-16T02:02:26;-1.70;99.90
9151;DHT22;4610;50.006;7.490;2023-02-16T02:04:58;-1.60;99.90
9151;DHT22;4610;50.006;7.490;2023-02-16T02:07:56;-1.70;99.90
9151;DHT22;4610;50.006;7.490;2023-02-16T02:10:27;-1.70;99.90
9151;DHT22;4610;50.006;7.490;2023-02-16T02:13:03;-1.70;99.90
9151;DHT22;4610;50.006;7.490;2023-02-16T02:15:32;-1.70;99.90
9151;DHT22;4610;50.006;7.490;2023-02-16T02:17:59;-1.70;99.90
9151;DHT22;4610;50.006;7.490;2023-02-16T02:20:32;-1.70;99.90
9151;DHT22;4610;50.006;7.490;2023-02-16T02:23:35;-1.70;99.90
9151;DHT22;4610;50.006;7.490;2023-02-16T02:26:48;-1.70;99.90
9151;DHT22;4610;50.006;7.490;2023-02-16T02:29:48;-1.70;99.90
9151;DHT22;4610;50.006;7.490;2023-02-16T02:32:26;-1.70;99.90
9151;DHT22;4610;50.006;7.490;2023-02-16T02:35:03;-1.70;99.90
9151;DHT22;4610;50.006;7.490;2023-02-16T02:37:48;-1.70;99.90
9151;DHT22;4610;50.006;7.490;2023-02-16T02:40:26;-1.70;99.90
9151;DHT22;4610;50.006;7.490;2023-02-16T02:43:03;-1.70;99.90
9151;DHT22;4610;50.006;7.490;2023-02-16T02:45:33;-1.80;99.90
9151;DHT22;4610;50.006;7.490;2023-02-16T02:48:01;-1.80;99.90
9151;DHT22;4610;50.006;7.490;2023-02-16T02:50:37;-1.90;99.90
9151;DHT22;4610;50.006;7.490;2023-02-16T02:53:07;-2.00;99.90
9151;DHT22;4610;50.006;7.490;2023-02-16T02:55:38;-1.90;99.90
9151;DHT22;4610;50.006;7.490;2023-02-16T02:58:27;-1.90;99.90
9151;DHT22;4610;50.006;7.490;2023-02-16T03:01:13;-2.00;99.90
9151;DHT22;4610;50.006;7.490;2023-02-16T03:03:44;-1.90;99.90
9151;DHT22;4610;50.006;7.490;2023-02-16T03:06:17;-2.00;99.90
9151;DHT22;4610;50.006;7.490;2023-02-16T03:08:48;-2.00;99.90
9151;DHT22;4610;50.006;7.490;2023-02-16T03:11:19;-1.90;99.90
9151;DHT22;4610;50.006;7.490;2023-02-16T03:14:09;-1.90;99.90
9151;DHT22;4610;50.006;7.490;2023-02-16T03:16:39;-1.90;99.90
9151;DHT22;4610;50.006;7.490;2023-02-16T03:19:09;-2.00;99.90
9151;DHT22;4610;50.006;7.490;2023-02-16T03:21:55;-2.00;99.90
9151;DHT22;4610;50.006;7.490;2023-02-16T03:24:41;-2.10;99.90
9151;DHT22;4610;50.006;7.490;2023-02-16T03:27:29;-2.10;99.90
9151;DHT22;4610;50.006;7.490;2023-02-16T03:30:17;-2.10;99.90
9151;DHT22;4610;50.006;7.490;2023-02-16T03:32:45;-2.10;99.90
9151;DHT22;4610;50.006;7.490;2023-02-16T03:35:13;-2.10;99.90
9151;DHT22;4610;50.006;7.490;2023-02-16T03:37:40;-2.10;99.90
9151;DHT22;4610;50.006;7.490;2023-02-16T03:40:09;-2.10;99.90
9151;DHT22;4610;50.006;7.490;2023-02-16T03:42:59;-2.10;99.90
9151;DHT22;4610;50.006;7.490;2023-02-16T03:45:29;-2.10;99.90
9151;DHT22;4610;50.006;7.490;2023-02-16T03:47:56;-2.10;99.90
9151;DHT22;4610;50.006;7.490;2023-02-16T03:50:22;-2.10;99.90
9151;DHT22;4610;50.006;7.490;2023-02-16T03:52:50;-2.10;99.90
9151;DHT22;4610;50.006;7.490;2023-02-16T03:55:17;-2.10;99.90
9151;DHT22;4610;50.006;7.490;2023-02-16T03:57:44;-2.10;99.90
9151;DHT22;4610;50.006;7.490;2023-02-16T04:00:12;-2.10;99.90
9151;DHT22;4610;50.006;7.490;2023-02-16T04:02:40;-2.20;99.90
9151;DHT22;4610;50.006;7.490;2023-02-16T04:05:07;-2.20;99.90
9151;DHT22;4610;50.006;7.490;2023-02-16T04:07:33;-2.30;99.90
9151;DHT22;4610;50.006;7.490;2023-02-16T04:10:00;-2.30;99.90
9151;DHT22;4610;50.006;7.490;2023-02-16T04:12:27;-2.30;99.90
9151;DHT22;4610;50.006;7.490;2023-02-16T04:15:03;-2.30;99.90
9151;DHT22;4610;50.006;7.490;2023-02-16T04:17:30;-2.30;99.90
9151;DHT22;4610;50.006;7.490;2023-02-16T04:19:58;-2.40;99.90
9151;DHT22;4610;50.006;7.490;2023-02-16T04:22:24;-2.40;99.90
9151;DHT22;4610;50.006;7.490;2023-02-16T04:24:51;-2.50;99.90
9151;DHT22;4610;50.006;7.490;2023-02-16T04:27:18;-2.50;99.90
9151;DHT22;4610;50.006;7.490;2023-02-16T04:29:45;-2.60;99.90
9151;DHT22;4610;50.006;7.490;2023-02-16T04:32:11;-2.60;99.90
9151;DHT22;4610;50.006;7.490;2023-02-16T04:34:38;-2.70;99.90
9151;DHT22;4610;50.006;7.490;2023-02-16T04:37:06;-2.60;99.90
9151;DHT22;4610;50.006;7.490;2023-02-16T04:39:33;-2.60;99.90
9151;DHT22;4610;50.006;7.490;2023-02-16T04:42:00;-2.60;99.90
9151;DHT22;4610;50.006;7.490;2023-02-16T04:44:26;-2.70;99.90
9151;DHT22;4610;50.006;7.490;2023-02-16T04:46:53;-2.80;99.90
9151;DHT22;4610;50.006;7.490;2023-02-16T04:49:20;-2.80;99.90
9151;DHT22;4610;50.006;7.490;2023-02-16T04:51:47;-2.80;99.90
9151;DHT22;4610;50.006;7.490;2023-02-16T04:54:15;-2.70;99.90
9151;DHT22;4610;50.006;7.490;2023-02-16T04:56:43;-2.70;99.90
9151;DHT22;4610;50.006;7.490;2023-02-16T04:59:10;-2.70;99.90
9151;DHT22;4610;50.006;7.490;2023-02-16T05:01:36;-2.80;99.90
9151;DHT22;4610;50.006;7.490;2023-02-16T05:04:03;-2.90;99.90
9151;DHT22;4610;50.006;7.490;2023-02-16T05:06:30;-2.80;99.90
9151;DHT22;4610;50.006;7.490;2023-02-16T05:08:57;-2.80;99.90
9151;DHT22;4610;50.006;7.490;2023-02-16T05:11:26;-2.80;99.90
9151;DHT22;4610;50.006;7.490;2023-02-16T05:14:16;-2.70;99.90
9151;DHT22;4610;50.006;7.490;2023-02-16T05:17:01;-2.70;99.90
9151;DHT22;4610;50.006;7.490;2023-02-16T05:19:28;-2.70;99.90
9151;DHT22;4610;50.006;7.490;2023-02-16T05:21:55;-2.70;99.90
9151;DHT22;4610;50.006;7.490;2023-02-16T05:24:21;-2.60;99.90
9151;DHT22;4610;50.006;7.490;2023-02-16T05:26:49;-2.60;99.90
9151;DHT22;4610;50.006;7.490;2023-02-16T05:29:16;-2.80;99.90
9151;DHT22;4610;50.006;7.490;2023-02-16T05:31:43;-2.90;99.90
9151;DHT22;4610;50.006;7.490;2023-02-16T05:34:10;-2.90;99.90
9151;DHT22;4610;50.006;7.490;2023-02-16T05:36:37;-2.90;99.90
9151;DHT22;4610;50.006;7.490;2023-02-16T05:39:03;-3.00;99.90
9151;DHT22;4610;50.006;7.490;2023-02-16T05:41:30;-3.10;99.90
9151;DHT22;4610;50.006;7.490;2023-02-16T05:44:00;-3.10;99.90
9151;DHT22;4610;50.006;7.490;2023-02-16T05:46:28;-3.10;99.90
9151;DHT22;4610;50.006;7.490;2023-02-16T05:48:56;-3.10;99.90
9151;DHT22;4610;50.006;7.490;2023-02-16T05:51:23;-3.00;99.90
9151;DHT22;4610;50.006;7.490;2023-02-16T05:53:50;-3.00;99.90
9151;DHT22;4610;50.006;7.490;2023-02-16T05:56:17;-3.00;99.90
9151;DHT22;4610;50.006;7.490;2023-02-16T05:58:44;-3.00;99.90
9151;DHT22;4610;50.006;7.490;2023-02-16T06:01:12;-3.00;99.90
9151;DHT22;4610;50.006;7.490;2023-02-16T06:03:39;-3.00;99.90
9151;DHT22;4610;50.006;7.490;2023-02-16T06:06:07;-2.90;99.90
9151;DHT22;4610;50.006;7.490;2023-02-16T06:08:34;-2.90;99.90
9151;DHT22;4610;50.006;7.490;2023-02-16T06:11:03;-2.90;99.90
9151;DHT22;4610;50.006;7.490;2023-02-16T06:13:31;-3.00;99.90
9151;DHT22;4610;50.006;7.490;2023-02-16T06:15:59;-3.00;99.90
9151;DHT22;4610;50.006;7.490;2023-02-16T06:18:27;-3.00;99.90
9151;DHT22;4610;50.006;7.490;2023-02-16T06:20:55;-3.10;99.90
9151;DHT22;4610;50.006;7.490;2023-02-16T06:23:22;-3.10;99.90
9151;DHT22;4610;50.006;7.490;2023-02-16T06:25:49;-3.10;99.90
9151;DHT22;4610;50.006;7.490;2023-02-16T06:28:16;-3.00;99.90
9151;DHT22;4610;50.006;7.490;2023-02-16T06:30:43;-3.00;99.90
9151;DHT22;4610;50.006;7.490;2023-02-16T06:33:10;-3.00;99.90
9151;DHT22;4610;50.006;7.490;2023-02-16T06:35:38;-3.00;99.90
9151;DHT22;4610;50.006;7.490;2023-02-16T06:38:05;-2.90;99.90
9151;DHT22;4610;50.006;7.490;2023-02-16T06:40:32;-2.90;99.90
9151;DHT22;4610;50.006;7.490;2023-02-16T06:42:58;-2.90;99.90
9151;DHT22;4610;50.006;7.490;2023-02-16T06:45:25;-3.00;99.90
9151;DHT22;4610;50.006;7.490;2023-02-16T06:47:52;-3.00;99.90
9151;DHT22;4610;50.006;7.490;2023-02-16T06:50:19;-3.00;99.90
9151;DHT22;4610;50.006;7.490;2023-02-16T06:52:49;-3.00;99.90
9151;DHT22;4610;50.006;7.490;2023-02-16T06:55:15;-3.00;99.90
9151;DHT22;4610;50.006;7.490;2023-02-16T06:57:42;-2.90;99.90
9151;DHT22;4610;50.006;7.490;2023-02-16T07:00:10;-2.80;99.90
9151;DHT22;4610;50.006;7.490;2023-02-16T07:02:37;-2.80;99.90
9151;DHT22;4610;50.006;7.490;2023-02-16T07:05:04;-2.40;99.90
9151;DHT22;4610;50.006;7.490;2023-02-16T07:07:31;-1.90;99.90
9151;DHT22;4610;50.006;7.490;2023-02-16T07:09:59;-1.20;99.90
9151;DHT22;4610;50.006;7.490;2023-02-16T07:12:27;0.90;99.90
9151;DHT22;4610;50.006;7.490;2023-02-16T07:14:54;1.20;99.90
9151;DHT22;4610;50.006;7.490;2023-02-16T07:17:20;1.40;99.90
9151;DHT22;4610;50.006;7.490;2023-02-16T07:19:47;1.70;99.90
9151;DHT22;4610;50.006;7.490;2023-02-16T07:22:14;1.80;99.90
9151;DHT22;4610;50.006;7.490;2023-02-16T07:24:41;2.00;99.90
9151;DHT22;4610;50.006;7.490;2023-02-16T07:27:09;1.80;99.90
9151;DHT22;4610;50.006;7.490;2023-02-16T07:29:36;1.80;99.90
9151;DHT22;4610;50.006;7.490;2023-02-16T07:32:04;2.20;99.90
9151;DHT22;4610;50.006;7.490;2023-02-16T07:34:31;2.80;99.90
9151;DHT22;4610;50.006;7.490;2023-02-16T07:36:58;3.30;99.90
9151;DHT22;4610;50.006;7.490;2023-02-16T07:39:25;3.60;99.90
9151;DHT22;4610;50.006;7.490;2023-02-16T07:41:53;3.60;99.90
9151;DHT22;4610;50.006;7.490;2023-02-16T07:44:21;4.30;99.90
9151;DHT22;4610;50.006;7.490;2023-02-16T07:46:48;5.10;99.90
9151;DHT22;4610;50.006;7.490;2023-02-16T07:49:15;5.50;99.90
9151;DHT22;4610;50.006;7.490;2023-02-16T07:51:41;5.60;99.90
9151;DHT22;4610;50.006;7.490;2023-02-16T07:54:09;5.60;99.90
9151;DHT22;4610;50.006;7.490;2023-02-16T07:56:36;5.80;99.90
9151;DHT22;4610;50.006;7.490;2023-02-16T07:59:03;6.10;99.90
9151;DHT22;4610;50.006;7.490;2023-02-16T08:03:59;6.70;99.90
9151;DHT22;4610;50.006;7.490;2023-02-16T08:06:26;6.90;99.90
9151;DHT22;4610;50.006;7.490;2023-02-16T08:08:53;7.20;99.90
9151;DHT22;4610;50.006;7.490;2023-02-16T08:11:22;7.50;99.90
9151;DHT22;4610;50.006;7.490;2023-02-16T08:13:50;7.60;99.90
9151;DHT22;4610;50.006;7.490;2023-02-16T08:16:18;8.00;99.90
9151;DHT22;4610;50.006;7.490;2023-02-16T08:18:47;8.40;99.90
9151;DHT22;4610;50.006;7.490;2023-02-16T08:21:16;8.80;99.90
9151;DHT22;4610;50.006;7.490;2023-02-16T08:23:44;9.30;99.90
9151;DHT22;4610;50.006;7.490;2023-02-16T08:26:12;9.40;99.90
9151;DHT22;4610;50.006;7.490;2023-02-16T08:28:41;9.70;99.90
9151;DHT22;4610;50.006;7.490;2023-02-16T08:31:10;9.90;99.90
9151;DHT22;4610;50.006;7.490;2023-02-16T08:33:37;10.20;99.90
9151;DHT22;4610;50.006;7.490;2023-02-16T08:36:06;10.30;99.90
9151;DHT22;4610;50.006;7.490;2023-02-16T08:38:34;10.40;99.90
9151;DHT22;4610;50.006;7.490;2023-02-16T08:41:00;10.40;99.90
9151;DHT22;4610;50.006;7.490;2023-02-16T08:43:27;10.60;99.90
9151;DHT22;4610;50.006;7.490;2023-02-16T08:45:54;10.40;99.90
9151;DHT22;4610;50.006;7.490;2023-02-16T08:48:21;9.70;99.90
9151;DHT22;4610;50.006;7.490;2023-02-16T08:50:48;9.10;99.90
9151;DHT22;4610;50.006;7.490;2023-02-16T08:53:21;8.20;99.90
9151;DHT22;4610;50.006;7.490;2023-02-16T08:55:52;7.30;99.90
9151;DHT22;4610;50.006;7.490;2023-02-16T08:58:19;7.00;99.90
9151;DHT22;4610;50.006;7.490;2023-02-16T09:00:46;6.60;99.90
9151;DHT22;4610;50.006;7.490;2023-02-16T09:03:13;6.20;99.90
9151;DHT22;4610;50.006;7.490;2023-02-16T09:05:41;6.10;99.90
9151;DHT22;4610;50.006;7.490;2023-02-16T09:08:07;5.60;99.90
9151;DHT22;4610;50.006;7.490;2023-02-16T09:10:36;5.70;99.90
9151;DHT22;4610;50.006;7.490;2023-02-16T09:13:03;5.70;99.90
9151;DHT22;4610;50.006;7.490;2023-02-16T09:15:31;5.90;99.90
9151;DHT22;4610;50.006;7.490;2023-02-16T09:17:58;6.00;99.90
9151;DHT22;4610;50.006;7.490;2023-02-16T09:20:25;6.10;99.90
9151;DHT22;4610;50.006;7.490;2023-02-16T09:22:54;6.20;99.90
9151;DHT22;4610;50.006;7.490;2023-02-16T09:25:21;6.10;99.90
9151;DHT22;4610;50.006;7.490;2023-02-16T09:27:52;6.00;99.90
9151;DHT22;4610;50.006;7.490;2023-02-16T09:30:20;6.00;99.90
9151;DHT22;4610;50.006;7.490;2023-02-16T09:32:47;5.90;99.90
9151;DHT22;4610;50.006;7.490;2023-02-16T09:35:14;5.90;99.90
9151;DHT22;4610;50.006;7.490;2023-02-16T09:37:41;5.90;99.90
9151;DHT22;4610;50.006;7.490;2023-02-16T09:40:10;5.90;99.90
9151;DHT22;4610;50.006;7.490;2023-02-16T09:42:52;5.90;99.90
9151;DHT22;4610;50.006;7.490;2023-02-16T09:45:22;5.90;99.90
9151;DHT22;4610;50.006;7.490;2023-02-16T09:47:50;6.00;99.90
9151;DHT22;4610;50.006;7.490;2023-02-16T09:50:20;6.00;99.90
9151;DHT22;4610;50.006;7.490;2023-02-16T09:52:52;6.20;99.90
9151;DHT22;4610;50.006;7.490;2023-02-16T09:55:23;6.10;99.90
9151;DHT22;4610;50.006;7.490;2023-02-16T09:58:03;6.00;99.90
9151;DHT22;4610;50.006;7.490;2023-02-16T10:00:43;5.90;99.90
9151;DHT22;4610;50.006;7.490;2023-02-16T10:03:25;5.90;99.90
9151;DHT22;4610;50.006;7.490;2023-02-16T10:06:05;5.70;99.90
9151;DHT22;4610;50.006;7.490;2023-02-16T10:08:39;5.60;99.90
9151;DHT22;4610;50.006;7.490;2023-02-16T10:11:12;5.50;99.90
9151;DHT22;4610;50.006;7.490;2023-02-16T10:13:56;5.50;99.90
9151;DHT22;4610;50.006;7.490;2023-02-16T10:16:28;5.70;99.90
9151;DHT22;4610;50.006;7.490;2023-02-16T10:18:58;5.80;99.90
9151;DHT22;4610;50.006;7.490;2023-02-16T10:21:27;6.00;99.90
9151;DHT22;4610;50.006;7.490;2023-02-16T10:23:59;6.10;99.90
9151;DHT22;4610;50.006;7.490;2023-02-16T10:26:31;6.10;99.90
9151;DHT22;4610;50.006;7.490;2023-02-16T10:29:05;6.20;99.90
9151;DHT22;4610;50.006;7.490;2023-02-16T10:31:37;6.20;99.90
9151;DHT22;4610;50.006;7.490;2023-02-16T10:34:17;6.30;99.90
9151;DHT22;4610;50.006;7.490;2023-02-16T10:37:00;6.40;99.90
9151;DHT22;4610;50.006;7.490;2023-02-16T10:39:36;6.50;99.90
9151;DHT22;4610;50.006;7.490;2023-02-16T10:42:12;6.70;99.90
9151;DHT22;4610;50.006;7.490;2023-02-16T10:44:46;6.90;99.90
9151;DHT22;4610;50.006;7.490;2023-02-16T10:47:24;7.10;99.90
9151;DHT22;4610;50.006;7.490;2023-02-16T10:49:52;7.20;99.90
9151;DHT22;4610;50.006;7.490;2023-02-16T10:52:21;7.40;99.90
9151;DHT22;4610;50.006;7.490;2023-02-16T10:54:48;7.40;99.90
9151;DHT22;4610;50.006;7.490;2023-02-16T10:57:24;7.40;99.90
9151;DHT22;4610;50.006;7.490;2023-02-16T10:59:53;7.40;99.90
9151;DHT22;4610;50.006;7.490;2023-02-16T11:02:25;7.40;99.90
9151;DHT22;4610;50.006;7.490;2023-02-16T11:04:54;7.40;99.90
9151;DHT22;4610;50.006;7.490;2023-02-16T11:07:23;7.40;99.90
9151;DHT22;4610;50.006;7.490;2023-02-16T11:09:52;7.40;99.90
9151;DHT22;4610;50.006;7.490;2023-02-16T11:12:26;7.50;99.90
9151;DHT22;4610;50.006;7.490;2023-02-16T11:14:57;7.70;99.90
9151;DHT22;4610;50.006;7.490;2023-02-16T11:17:26;8.10;99.90
9151;DHT22;4610;50.006;7.490;2023-02-16T11:19:55;8.40;99.90
9151;DHT22;4610;50.006;7.490;2023-02-16T11:22:26;8.60;99.90
9151;DHT22;4610;50.006;7.490;2023-02-16T11:24:54;8.70;99.90
9151;DHT22;4610;50.006;7.490;2023-02-16T11:27:22;8.80;99.90
9151;DHT22;4610;50.006;7.490;2023-02-16T11:29:49;8.80;99.90
9151;DHT22;4610;50.006;7.490;2023-02-16T11:32:19;8.70;99.90
9151;DHT22;4610;50.006;7.490;2023-02-16T11:34:48;8.80;99.90
9151;DHT22;4610;50.006;7.490;2023-02-16T11:37:23;8.70;99.90
9151;DHT22;4610;50.006;7.490;2023-02-16T11:39:54;8.60;99.90
9151;DHT22;4610;50.006;7.490;2023-02-16T11:42:28;8.60;99.90
9151;DHT22;4610;50.006;7.490;2023-02-16T11:44:58;8.60;99.90
9151;DHT22;4610;50.006;7.490;2023-02-16T11:47:28;8.60;99.90
9151;DHT22;4610;50.006;7.490;2023-02-16T11:50:16;8.70;99.90
9151;DHT22;4610;50.006;7.490;2023-02-16T11:52:44;8.70;99.90
9151;DHT22;4610;50.006;7.490;2023-02-16T11:55:19;8.80;99.90
9151;DHT22;4610;50.006;7.490;2023-02-16T11:57:47;8.90;99.90
9151;DHT22;4610;50.006;7.490;2023-02-16T12:00:17;8.90;99.90
9151;DHT22;4610;50.006;7.490;2023-02-16T12:03:16;8.90;99.90
9151;DHT22;4610;50.006;7.490;2023-02-16T12:05:51;8.90;99.90
9151;DHT22;4610;50.006;7.490;2023-02-16T12:08:33;8.90;99.90
9151;DHT22;4610;50.006;7.490;2023-02-16T12:11:16;8.90;99.90
9151;DHT22;4610;50.006;7.490;2023-02-16T12:13:57;8.80;99.90
9151;DHT22;4610;50.006;7.490;2023-02-16T12:16:34;8.80;99.90
9151;DHT22;4610;50.006;7.490;2023-02-16T12:19:12;8.80;99.90
9151;DHT22;4610;50.006;7.490;2023-02-16T12:21:47;8.80;99.90
9151;DHT22;4610;50.006;7.490;2023-02-16T12:24:26;8.90;99.90
9151;DHT22;4610;50.006;7.490;2023-02-16T12:26:59;9.00;99.90
9151;DHT22;4610;50.006;7.490;2023-02-16T12:29:38;9.10;99.90
9151;DHT22;4610;50.006;7.490;2023-02-16T12:32:20;9.20;99.90
9151;DHT22;4610;50.006;7.490;2023-02-16T12:37:52;9.20;99.90
9151;DHT22;4610;50.006;7.490;2023-02-16T12:40:27;9.20;99.90
9151;DHT22;4610;50.006;7.490;2023-02-16T12:43:05;9.10;99.90
9151;DHT22;4610;50.006;7.490;2023-02-16T12:45:37;9.10;99.90
9151;DHT22;4610;50.006;7.490;2023-02-16T12:48:15;9.10;99.90
9151;DHT22;4610;50.006;7.490;2023-02-16T12:50:48;9.00;99.90
9151;DHT22;4610;50.006;7.490;2023-02-16T12:53:20;9.10;99.90
9151;DHT22;4610;50.006;7.490;2023-02-16T12:55:54;9.00;99.90
9151;DHT22;4610;50.006;7.490;2023-02-16T12:58:24;9.00;99.90
9151;DHT22;4610;50.006;7.490;2023-02-16T13:00:55;8.90;99.90
9151;DHT22;4610;50.006;7.490;2023-02-16T13:03:32;8.90;99.90
9151;DHT22;4610;50.006;7.490;2023-02-16T13:06:10;9.00;99.90
9151;DHT22;4610;50.006;7.490;2023-02-16T13:08:42;9.00;99.90
9151;DHT22;4610;50.006;7.490;2023-02-16T13:11:15;9.00;99.90
9151;DHT22;4610;50.006;7.490;2023-02-16T13:13:46;9.10;99.90
9151;DHT22;4610;50.006;7.490;2023-02-16T13:16:15;9.10;99.90
9151;DHT22;4610;50.006;7.490;2023-02-16T13:18:46;9.10;99.90
9151;DHT22;4610;50.006;7.490;2023-02-16T13:21:29;9.10;99.90
9151;DHT22;4610;50.006;7.490;2023-02-16T13:24:08;9.00;99.90
9151;DHT22;4610;50.006;7.490;2023-02-16T13:26:59;9.00;99.90
9151;DHT22;4610;50.006;7.490;2023-02-16T13:29:50;8.90;99.90
9151;DHT22;4610;50.006;7.490;2023-02-16T13:32:32;8.90;99.90
9151;DHT22;4610;50.006;7.490;2023-02-16T13:35:13;9.00;99.90
9151;DHT22;4610;50.006;7.490;2023-02-16T13:38:00;9.10;99.90
9151;DHT22;4610;50.006;7.490;2023-02-16T13:40:55;9.20;99.90
9151;DHT22;4610;50.006;7.490;2023-02-16T13:43:29;9.10;99.90
9151;DHT22;4610;50.006;7.490;2023-02-16T13:45:57;9.10;99.90
9151;DHT22;4610;50.006;7.490;2023-02-16T13:48:28;9.10;99.90
9151;DHT22;4610;50.006;7.490;2023-02-16T13:50:58;9.10;99.90
9151;DHT22;4610;50.006;7.490;2023-02-16T13:53:31;9.00;99.90
9151;DHT22;4610;50.006;7.490;2023-02-16T13:56:20;9.00;99.90
9151;DHT22;4610;50.006;7.490;2023-02-16T13:58:51;9.00;99.90
9151;DHT22;4610;50.006;7.490;2023-02-16T14:01:36;9.00;99.90
9151;DHT22;4610;50.006;7.490;2023-02-16T14:04:11;9.00;99.90
9151;DHT22;4610;50.006;7.490;2023-02-16T14:06:39;8.90;99.90
9151;DHT22;4610;50.006;7.490;2023-02-16T14:09:31;9.00;99.90
9151;DHT22;4610;50.006;7.490;2023-02-16T14:12:03;9.20;99.90
9151;DHT22;4610;50.006;7.490;2023-02-16T14:14:33;9.30;99.90
9151;DHT22;4610;50.006;7.490;2023-02-16T14:17:23;9.30;99.90
9151;DHT22;4610;50.006;7.490;2023-02-16T14:19:53;9.40;99.90
9151;DHT22;4610;50.006;7.490;2023-02-16T14:22:23;9.40;99.90
9151;DHT22;4610;50.006;7.490;2023-02-16T14:24:58;9.40;99.90
9151;DHT22;4610;50.006;7.490;2023-02-16T14:27:44;9.40;99.90
9151;DHT22;4610;50.006;7.490;2023-02-16T14:30:23;9.40;99.90
9151;DHT22;4610;50.006;7.490;2023-02-16T14:32:57;9.30;99.90
9151;DHT22;4610;50.006;7.490;2023-02-16T14:35:29;9.30;99.90
9151;DHT22;4610;50.006;7.490;2023-02-16T14:37:58;9.30;99.90
9151;DHT22;4610;50.006;7.490;2023-02-16T14:40:42;9.40;99.90
9151;DHT22;4610;50.006;7.490;2023-02-16T14:43:19;9.40;99.90
9151;DHT22;4610;50.006;7.490;2023-02-16T14:46:06;9.40;99.90
9151;DHT22;4610;50.006;7.490;2023-02-16T14:51:48;9.40;99.90
9151;DHT22;4610;50.006;7.490;2023-02-16T14:54:39;9.30;99.90
9151;DHT22;4610;50.006;7.490;2023-02-16T14:57:14;9.30;99.90
9151;DHT22;4610;50.006;7.490;2023-02-16T14:59:47;9.20;99.90
9151;DHT22;4610;50.006;7.490;2023-02-16T15:02:27;9.10;99.90
9151;DHT22;4610;50.006;7.490;2023-02-16T15:04:54;9.00;99.90
9151;DHT22;4610;50.006;7.490;2023-02-16T15:07:22;9.00;99.90
9151;DHT22;4610;50.006;7.490;2023-02-16T15:09:54;8.90;99.90
9151;DHT22;4610;50.006;7.490;2023-02-16T15:12:27;8.90;99.90
9151;DHT22;4610;50.006;7.490;2023-02-16T15:14:57;9.00;99.90
9151;DHT22;4610;50.006;7.490;2023-02-16T15:17:29;9.00;99.90
9151;DHT22;4610;50.006;7.490;2023-02-16T15:20:02;9.10;99.90
9151;DHT22;4610;50.006;7.490;2023-02-16T15:22:30;9.10;99.90
9151;DHT22;4610;50.006;7.490;2023-02-16T15:24:59;9.20;99.90
9151;DHT22;4610;50.006;7.490;2023-02-16T15:27:29;9.10;99.90
9151;DHT22;4610;50.006;7.490;2023-02-16T15:30:17;9.00;99.90
9151;DHT22;4610;50.006;7.490;2023-02-16T15:32:49;9.00;99.90
9151;DHT22;4610;50.006;7.490;2023-02-16T15:35:26;9.00;99.90
9151;DHT22;4610;50.006;7.490;2023-02-16T15:40:43;9.10;99.90
9151;DHT22;4610;50.006;7.490;2023-02-16T15:43:20;9.10;99.90
9151;DHT22;4610;50.006;7.490;2023-02-16T15:45:52;9.10;99.90
9151;DHT22;4610;50.006;7.490;2023-02-16T15:48:23;9.10;99.90
9151;DHT22;4610;50.006;7.490;2023-02-16T15:50:51;9.10;99.90
9151;DHT22;4610;50.006;7.490;2023-02-16T15:53:27;9.00;99.90
9151;DHT22;4610;50.006;7.490;2023-02-16T15:55:56;9.00;99.90
9151;DHT22;4610;50.006;7.490;2023-02-16T15:58:24;9.00;99.90
9151;DHT22;4610;50.006;7.490;2023-02-16T16:00:52;9.00;99.90
9151;DHT22;4610;50.006;7.490;2023-02-16T16:03:19;9.00;99.90
9151;DHT22;4610;50.006;7.490;2023-02-16T16:05:59;9.00;99.90
9151;DHT22;4610;50.006;7.490;2023-02-16T16:08:28;9.00;99.90
9151;DHT22;4610;50.006;7.490;2023-02-16T16:10:56;9.00;99.90
9151;DHT22;4610;50.006;7.490;2023-02-16T16:13:27;8.90;99.90
9151;DHT22;4610;50.006;7.490;2023-02-16T16:15:57;8.80;99.90
9151;DHT22;4610;50.006;7.490;2023-02-16T16:18:42;8.60;99.90
9151;DHT22;4610;50.006;7.490;2023-02-16T16:21:19;8.60;99.90
9151;DHT22;4610;50.006;7.490;2023-02-16T16:23:55;8.60;99.90
9151;DHT22;4610;50.006;7.490;2023-02-16T16:26:23;8.60;99.90
9151;DHT22;4610;50.006;7.490;2023-02-16T16:28:52;8.50;99.90
9151;DHT22;4610;50.006;7.490;2023-02-16T16:31:32;8.50;99.90
9151;DHT22;4610;50.006;7.490;2023-02-16T16:34:01;8.50;99.90
9151;DHT22;4610;50.006;7.490;2023-02-16T16:36:31;8.50;99.90
9151;DHT22;4610;50.006;7.490;2023-02-16T16:39:19;8.40;99.90
9151;DHT22;4610;50.006;7.490;2023-02-16T16:42:08;8.30;99.90
9151;DHT22;4610;50.006;7.490;2023-02-16T16:44:42;8.20;99.90
9151;DHT22;4610;50.006;7.490;2023-02-16T16:47:24;8.10;99.90
9151;DHT22;4610;50.006;7.490;2023-02-16T16:49:53;8.00;99.90
9151;DHT22;4610;50.006;7.490;2023-02-16T16:52:32;7.90;99.90